createdAt,value
2022-12-04T00:01:19.877Z,109.35
2022-12-04T00:03:47.087Z,113.38
2022-12-04T00:06:17.081Z,100.97
2022-12-04T00:08:44.951Z,110.72
2022-12-04T00:11:14.651Z,103.25
2022-12-04T00:13:41.776Z,84.38
2022-12-04T00:16:12.535Z,114.55
2022-12-04T00:18:41.010Z,112.32
2022-12-04T00:21:11.636Z,81.22
2022-12-04T00:23:41.393Z,103.80
2022-12-04T00:26:14.925Z,97.97
2022-12-04T00:28:42.717Z,104.78
2022-12-04T00:31:16.479Z,111.88
2022-12-04T00:33:44.046Z,97.93
2022-12-04T00:36:16.282Z,111.97
2022-12-04T00:38:46.363Z,81.50
2022-12-04T00:41:18.581Z,92.35
2022-12-04T00:43:46.008Z,111.82
2022-12-04T00:46:13.377Z,106.03
2022-12-04T00:48:41.180Z,102.55
2022-12-04T00:51:15.158Z,96.25
2022-12-04T00:53:42.494Z,101.55
2022-12-04T00:56:20.427Z,96.20
2022-12-04T00:58:47.918Z,108.13
2022-12-04T01:01:18.575Z,109.35
2022-12-04T01:03:46.094Z,93.25
2022-12-04T01:06:23.252Z,73.30
2022-12-04T01:08:52.155Z,92.68
2022-12-04T01:11:20.409Z,95.03
2022-12-04T01:13:47.796Z,95.93
2022-12-04T01:16:28.060Z,74.25
2022-12-04T01:18:55.203Z,94.90
2022-12-04T01:21:22.584Z,86.60
2022-12-04T01:23:49.588Z,82.43
2022-12-04T01:26:16.828Z,97.53
2022-12-04T01:28:44.042Z,56.50
2022-12-04T01:31:16.911Z,71.82
2022-12-04T01:33:44.464Z,92.78
2022-12-04T01:36:15.236Z,85.78
2022-12-04T01:38:42.709Z,90.95
2022-12-04T01:41:12.663Z,67.18
2022-12-04T01:43:40.587Z,84.53
2022-12-04T01:46:08.827Z,77.38
2022-12-04T01:48:49.092Z,69.90
2022-12-04T01:51:25.035Z,68.65
2022-12-04T01:53:56.566Z,68.70
2022-12-04T01:56:29.558Z,88.78
2022-12-04T01:58:59.275Z,82.15
2022-12-04T02:01:29.180Z,93.75
2022-12-04T02:03:56.985Z,94.25
2022-12-04T02:06:24.251Z,76.05
2022-12-04T02:08:51.234Z,63.15
2022-12-04T02:11:42.621Z,52.00
2022-12-04T02:14:24.345Z,98.32
2022-12-04T02:17:04.698Z,75.72
2022-12-04T02:19:37.689Z,85.30
2022-12-04T02:22:17.910Z,78.60
2022-12-04T02:24:58.473Z,91.43
2022-12-04T02:27:40.295Z,89.85
2022-12-04T02:30:11.510Z,105.47
2022-12-04T02:33:14.034Z,86.93
2022-12-04T02:35:46.547Z,93.50
2022-12-04T02:38:35.723Z,87.45
2022-12-04T02:41:33.973Z,95.32
2022-12-04T02:44:20.492Z,95.35
2022-12-04T02:46:52.766Z,92.07
2022-12-04T02:49:26.168Z,105.45
2022-12-04T02:51:55.736Z,99.03
2022-12-04T02:54:34.165Z,85.10
2022-12-04T02:57:04.723Z,79.78
2022-12-04T02:59:39.368Z,73.72
2022-12-04T03:02:31.800Z,87.72
2022-12-04T03:05:03.973Z,102.53
2022-12-04T03:07:48.927Z,97.93
2022-12-04T03:10:24.991Z,77.20
2022-12-04T03:13:11.550Z,111.38
2022-12-04T03:15:50.360Z,102.15
2022-12-04T03:18:26.438Z,85.40
2022-12-04T03:21:06.515Z,69.80
2022-12-04T03:23:41.132Z,96.95
2022-12-04T03:26:19.807Z,106.60
2022-12-04T03:29:03.124Z,107.82
2022-12-04T03:31:40.244Z,92.50
2022-12-04T03:34:09.149Z,101.55
2022-12-04T03:36:55.982Z,82.60
2022-12-04T03:39:28.967Z,112.32
2022-12-04T03:42:08.237Z,95.13
2022-12-04T03:44:48.056Z,92.22
2022-12-04T03:47:20.864Z,103.03
2022-12-04T03:50:02.226Z,107.80
2022-12-04T03:52:55.134Z,98.22
2022-12-04T03:55:32.300Z,102.40
2022-12-04T03:58:10.117Z,103.00
2022-12-04T04:00:40.617Z,109.53
2022-12-04T04:03:20.141Z,96.18
2022-12-04T04:05:52.215Z,111.85
2022-12-04T04:08:30.787Z,92.68
2022-12-04T04:11:18.544Z,104.65
2022-12-04T04:14:13.799Z,70.82
2022-12-04T04:17:04.442Z,71.93
2022-12-04T04:19:55.043Z,88.82
2022-12-04T04:22:43.888Z,82.03
2022-12-04T04:25:18.129Z,98.57
2022-12-04T04:27:53.149Z,90.15
2022-12-04T04:30:21.394Z,63.17
2022-12-04T04:32:58.823Z,67.78
2022-12-04T04:35:49.274Z,64.00
2022-12-04T04:38:27.831Z,75.50
2022-12-04T04:41:19.550Z,68.22
2022-12-04T04:43:55.392Z,72.35
2022-12-04T04:46:32.036Z,57.08
2022-12-04T04:49:02.836Z,78.15
2022-12-04T04:51:33.282Z,67.53
2022-12-04T04:54:05.459Z,55.00
2022-12-04T04:56:39.238Z,50.88
2022-12-04T04:59:06.209Z,63.80
2022-12-04T05:01:33.674Z,69.50
2022-12-04T05:04:01.523Z,71.30
2022-12-04T05:06:28.760Z,60.22
2022-12-04T05:08:55.720Z,52.42
2022-12-04T05:11:22.978Z,50.40
2022-12-04T05:13:50.033Z,74.20
2022-12-04T05:16:17.660Z,51.20
2022-12-04T05:19:04.903Z,47.17
2022-12-04T05:21:32.823Z,57.22
2022-12-04T05:24:00.425Z,67.65
2022-12-04T05:26:27.745Z,49.95
2022-12-04T05:28:54.892Z,58.35
2022-12-04T05:31:22.203Z,64.88
2022-12-04T05:33:49.228Z,66.93
2022-12-04T05:36:16.591Z,41.67
2022-12-04T05:38:43.668Z,53.10
2022-12-04T05:41:11.036Z,62.13
2022-12-04T05:43:38.260Z,54.83
2022-12-04T05:46:07.757Z,52.40
2022-12-04T05:48:35.687Z,66.85
2022-12-04T05:51:10.511Z,64.05
2022-12-04T05:53:37.941Z,44.05
2022-12-04T05:56:06.360Z,43.92
2022-12-04T05:58:38.035Z,51.00
2022-12-04T06:01:15.925Z,45.53
2022-12-04T06:03:42.987Z,75.75
2022-12-04T06:06:19.331Z,57.53
2022-12-04T06:08:49.408Z,106.75
2022-12-04T06:11:19.714Z,78.47
2022-12-04T06:13:47.259Z,53.10
2022-12-04T06:16:30.024Z,64.80
2022-12-04T06:19:02.454Z,62.95
2022-12-04T06:21:32.147Z,63.45
2022-12-04T06:23:59.360Z,66.45
2022-12-04T06:26:26.768Z,69.60
2022-12-04T06:28:54.762Z,74.93
2022-12-04T06:31:22.294Z,60.78
2022-12-04T06:33:50.790Z,66.20
2022-12-04T06:36:19.633Z,72.78
2022-12-04T06:38:47.689Z,46.40
2022-12-04T06:41:17.975Z,60.58
2022-12-04T06:43:45.725Z,48.67
2022-12-04T06:46:19.243Z,72.57
2022-12-04T06:48:47.067Z,56.38
2022-12-04T06:51:18.069Z,58.58
2022-12-04T06:53:45.909Z,50.22
2022-12-04T06:56:18.143Z,62.97
2022-12-04T06:58:46.769Z,63.95
2022-12-04T07:01:17.194Z,56.72
2022-12-04T07:03:50.950Z,58.75
2022-12-04T07:06:26.554Z,50.45
2022-12-04T07:09:09.910Z,69.22
2022-12-04T07:11:38.358Z,58.70
2022-12-04T07:14:05.649Z,61.72
2022-12-04T07:16:40.036Z,71.80
2022-12-04T07:19:08.535Z,47.58
2022-12-04T07:21:35.929Z,69.57
2022-12-04T07:24:03.046Z,69.35
2022-12-04T07:26:31.125Z,57.28
2022-12-04T07:28:59.552Z,56.97
2022-12-04T07:31:28.988Z,61.83
2022-12-04T07:33:57.446Z,64.50
2022-12-04T07:36:26.182Z,61.45
2022-12-04T07:38:56.144Z,36.92
2022-12-04T07:41:26.023Z,69.47
2022-12-04T07:43:54.172Z,63.45
2022-12-04T07:46:26.013Z,65.93
2022-12-04T07:48:55.886Z,69.03
2022-12-04T07:51:26.815Z,56.10
2022-12-04T07:53:54.757Z,67.50
2022-12-04T07:56:22.386Z,73.85
2022-12-04T07:58:49.582Z,75.20
2022-12-04T08:01:20.143Z,87.28
2022-12-04T08:03:49.239Z,81.45
2022-12-04T08:06:21.770Z,90.22
2022-12-04T08:08:49.657Z,63.95
2022-12-04T08:11:22.265Z,159.45
2022-12-04T08:13:54.100Z,63.30
2022-12-04T08:16:21.777Z,67.18
2022-12-04T08:18:48.893Z,58.92
2022-12-04T08:21:20.862Z,52.13
2022-12-04T08:23:50.483Z,71.20
2022-12-04T08:26:19.314Z,65.72
2022-12-04T08:28:47.783Z,57.40
2022-12-04T08:31:17.962Z,98.55
2022-12-04T08:33:46.765Z,61.50
2022-12-04T08:36:17.327Z,72.88
2022-12-04T08:38:46.981Z,68.85
2022-12-04T08:41:18.280Z,56.70
2022-12-04T08:43:45.829Z,66.30
2022-12-04T08:46:16.026Z,77.82
2022-12-04T08:48:43.232Z,108.68
2022-12-04T08:51:16.663Z,106.90
2022-12-04T08:53:44.138Z,67.05
2022-12-04T08:56:11.446Z,67.18
2022-12-04T08:58:44.255Z,64.88
2022-12-04T09:01:13.561Z,81.55
2022-12-04T09:03:41.278Z,58.95
2022-12-04T09:06:12.245Z,79.00
2022-12-04T09:08:39.637Z,73.22
2022-12-04T09:11:08.389Z,59.97
2022-12-04T09:13:36.234Z,84.50
2022-12-04T09:16:06.945Z,72.65
2022-12-04T09:18:35.391Z,77.75
2022-12-04T09:21:06.437Z,56.53
2022-12-04T09:23:36.567Z,50.10
2022-12-04T09:26:06.368Z,48.55
2022-12-04T09:28:33.473Z,68.20
2022-12-04T09:31:03.532Z,72.88
2022-12-04T09:33:31.520Z,68.72
2022-12-04T09:35:59.960Z,105.20
2022-12-04T09:38:28.403Z,85.47
2022-12-04T09:41:29.543Z,80.05
2022-12-04T09:44:18.389Z,86.18
2022-12-04T09:47:18.828Z,60.58
2022-12-04T09:50:26.110Z,72.78
2022-12-04T09:52:58.997Z,78.22
2022-12-04T09:55:32.375Z,101.03
2022-12-04T09:58:02.746Z,70.00
2022-12-04T10:00:31.721Z,63.28
2022-12-04T10:03:06.082Z,59.17
2022-12-04T10:05:51.711Z,62.53
2022-12-04T10:08:19.091Z,65.72
2022-12-04T10:11:14.982Z,69.72
2022-12-04T10:14:13.818Z,66.43
2022-12-04T10:16:52.134Z,49.15
2022-12-04T10:19:32.094Z,60.13
2022-12-04T10:22:14.185Z,102.43
2022-12-04T10:24:57.645Z,67.95
2022-12-04T10:27:44.802Z,96.13
2022-12-04T10:30:24.722Z,89.60
2022-12-04T10:32:59.919Z,47.80
2022-12-04T10:35:30.164Z,64.18
2022-12-04T10:38:02.132Z,72.32
2022-12-04T10:40:48.980Z,69.00
2022-12-04T10:43:28.514Z,97.10
2022-12-04T10:45:56.230Z,63.53
2022-12-04T10:48:31.446Z,79.25
2022-12-04T10:50:58.812Z,111.75
2022-12-04T10:53:32.780Z,65.03
2022-12-04T10:56:14.726Z,71.00
2022-12-04T10:58:41.998Z,57.08
2022-12-04T11:01:14.748Z,75.85
2022-12-04T11:03:44.199Z,61.63
2022-12-04T11:06:15.244Z,80.57
2022-12-04T11:08:48.727Z,74.13
2022-12-04T11:11:22.774Z,64.40
2022-12-04T11:14:01.138Z,73.75
2022-12-04T11:16:39.049Z,64.97
2022-12-04T11:19:27.008Z,73.22
2022-12-04T11:21:57.398Z,62.55
2022-12-04T11:24:29.498Z,78.10
2022-12-04T11:26:57.780Z,67.45
2022-12-04T11:29:38.322Z,64.22
2022-12-04T11:32:08.172Z,55.90
2022-12-04T11:34:41.213Z,79.03
2022-12-04T11:37:20.895Z,84.95
2022-12-04T11:39:49.230Z,60.72
2022-12-04T11:42:23.031Z,61.78
2022-12-04T11:45:21.141Z,78.65
2022-12-04T11:47:57.250Z,60.55
2022-12-04T11:50:43.125Z,58.95
2022-12-04T11:53:10.550Z,57.28
2022-12-04T11:55:52.411Z,68.45
2022-12-04T11:58:27.110Z,65.53
2022-12-04T12:01:31.458Z,61.25
2022-12-04T12:04:37.198Z,77.15
2022-12-04T12:07:24.235Z,48.33
2022-12-04T12:10:05.105Z,68.32
2022-12-04T12:12:51.126Z,54.25
2022-12-04T12:15:33.471Z,63.95
2022-12-04T12:18:29.934Z,73.32
2022-12-04T12:21:21.447Z,74.63
2022-12-04T12:24:17.474Z,75.95
2022-12-04T12:26:57.935Z,64.05
2022-12-04T12:29:56.087Z,86.07
2022-12-04T12:32:53.871Z,53.45
2022-12-04T12:35:27.165Z,55.83
2022-12-04T12:38:00.053Z,60.95
2022-12-04T12:40:35.433Z,86.75
2022-12-04T12:43:20.100Z,75.70
2022-12-04T12:46:12.439Z,63.70
2022-12-04T12:49:22.820Z,69.03
2022-12-04T12:52:07.659Z,54.90
2022-12-04T12:57:12.979Z,55.47
2022-12-04T12:59:47.500Z,69.95
2022-12-04T13:02:27.560Z,51.50
2022-12-04T13:05:00.203Z,50.80
2022-12-04T13:07:57.926Z,54.50
2022-12-04T13:10:36.431Z,62.80
2022-12-04T13:13:11.011Z,53.67
2022-12-04T13:15:49.549Z,78.18
2022-12-04T13:18:29.138Z,48.67
2022-12-04T13:21:00.760Z,61.20
2022-12-04T13:23:49.099Z,52.35
2022-12-04T13:26:49.671Z,57.85
2022-12-04T13:29:36.025Z,42.33
2022-12-04T13:32:30.936Z,55.65
2022-12-04T13:35:28.341Z,73.75
2022-12-04T13:38:33.593Z,57.05
2022-12-04T13:41:04.071Z,48.58
2022-12-04T13:44:02.821Z,80.30
2022-12-04T13:46:42.442Z,65.22
2022-12-04T13:49:13.566Z,57.13
2022-12-04T13:51:41.960Z,63.42
2022-12-04T13:54:12.040Z,61.53
2022-12-04T13:56:41.635Z,47.03
2022-12-04T13:59:21.214Z,78.47
2022-12-04T14:01:51.721Z,66.35
2022-12-04T14:04:32.220Z,73.72
2022-12-04T14:07:02.089Z,72.57
2022-12-04T14:09:44.069Z,63.00
2022-12-04T14:12:17.375Z,53.45
2022-12-04T14:15:16.105Z,64.82
2022-12-04T14:17:47.328Z,69.65
2022-12-04T14:20:34.750Z,64.35
2022-12-04T14:23:19.929Z,50.13
2022-12-04T14:28:42.219Z,53.40
2022-12-04T14:31:21.920Z,55.28
2022-12-04T14:34:21.447Z,68.13
2022-12-04T14:36:52.241Z,38.55
2022-12-04T14:39:45.395Z,58.88
2022-12-04T14:42:23.355Z,56.50
2022-12-04T14:44:59.259Z,54.20
2022-12-04T14:47:43.692Z,56.75
2022-12-04T14:50:37.312Z,52.60
2022-12-04T14:53:26.590Z,62.67
2022-12-04T14:56:07.688Z,62.03
2022-12-04T14:58:38.747Z,65.53
2022-12-04T15:01:23.952Z,68.10
2022-12-04T15:04:01.369Z,40.72
2022-12-04T15:06:33.796Z,59.33
2022-12-04T15:09:22.824Z,45.80
2022-12-04T15:12:11.202Z,62.58
2022-12-04T15:14:46.875Z,75.38
2022-12-04T15:17:16.244Z,51.28
2022-12-04T15:19:44.027Z,61.58
2022-12-04T15:22:34.646Z,171.63
2022-12-04T15:25:02.557Z,44.85
2022-12-04T15:27:32.908Z,59.08
2022-12-04T15:30:02.281Z,66.60
2022-12-04T15:32:30.867Z,67.68
2022-12-04T15:35:08.919Z,66.53
2022-12-04T15:37:36.706Z,53.95
2022-12-04T15:40:08.540Z,69.50
2022-12-04T15:42:35.535Z,44.63
2022-12-04T15:45:24.062Z,42.35
2022-12-04T15:47:53.769Z,50.50
2022-12-04T15:50:24.022Z,62.42
2022-12-04T15:53:17.474Z,47.92
2022-12-04T15:55:49.538Z,62.55
2022-12-04T15:58:22.873Z,63.85
2022-12-04T16:01:00.144Z,55.70
2022-12-04T16:03:31.402Z,49.40
2022-12-04T16:06:25.089Z,75.55
2022-12-04T16:08:58.225Z,48.45
2022-12-04T16:11:35.528Z,43.70
2022-12-04T16:14:09.288Z,64.55
2022-12-04T16:16:38.328Z,94.05
2022-12-04T16:19:24.376Z,64.20
2022-12-04T16:21:52.235Z,48.40
2022-12-04T16:24:19.445Z,49.17
2022-12-04T16:26:50.682Z,59.05
2022-12-04T16:29:17.920Z,31.90
2022-12-04T16:31:45.598Z,52.97
2022-12-04T16:34:13.751Z,46.22
2022-12-04T16:36:41.877Z,38.40
2022-12-04T16:39:09.064Z,37.00
2022-12-04T16:41:36.445Z,44.72
2022-12-04T16:44:03.571Z,57.80
2022-12-04T16:46:31.144Z,43.05
2022-12-04T16:49:01.470Z,42.30
2022-12-04T16:51:31.977Z,47.45
2022-12-04T16:53:59.866Z,38.75
2022-12-04T16:56:27.248Z,34.22
2022-12-04T16:58:54.455Z,46.97
2022-12-04T17:01:25.260Z,46.22
2022-12-04T17:03:52.975Z,48.72
2022-12-04T17:06:20.952Z,37.78
2022-12-04T17:08:47.944Z,28.10
2022-12-04T17:11:16.784Z,59.25
2022-12-04T17:13:44.258Z,53.63
2022-12-04T17:16:15.328Z,65.10
2022-12-04T17:18:48.185Z,51.22
2022-12-04T17:21:15.546Z,49.38
2022-12-04T17:23:42.937Z,47.63
2022-12-04T17:26:15.013Z,26.10
2022-12-04T17:28:42.701Z,53.05
2022-12-04T17:31:18.621Z,52.63
2022-12-04T17:33:46.801Z,32.35
2022-12-04T17:36:24.082Z,50.70
2022-12-04T17:39:01.468Z,52.03
2022-12-04T17:41:29.499Z,34.28
2022-12-04T17:43:59.121Z,46.17
2022-12-04T17:46:29.340Z,32.17
2022-12-04T17:48:59.553Z,47.00
2022-12-04T17:51:30.115Z,42.55
2022-12-04T17:53:57.363Z,47.13
2022-12-04T17:56:25.233Z,35.58
2022-12-04T17:58:53.361Z,36.30
2022-12-04T18:01:24.103Z,23.30
2022-12-04T18:03:56.181Z,35.50
2022-12-04T18:06:35.116Z,31.52
2022-12-04T18:09:02.669Z,36.90
2022-12-04T18:11:32.088Z,27.83
2022-12-04T18:14:12.517Z,39.22
2022-12-04T18:16:46.830Z,60.50
2022-12-04T18:19:16.554Z,43.50
2022-12-04T18:21:43.931Z,44.72
2022-12-04T18:24:11.211Z,61.08
2022-12-04T18:26:41.011Z,42.90
2022-12-04T18:29:09.424Z,112.20
2022-12-04T18:31:36.768Z,101.78
2022-12-04T18:34:07.564Z,43.47
2022-12-04T18:36:36.025Z,69.10
2022-12-04T18:39:10.599Z,46.92
2022-12-04T18:44:05.753Z,58.60
2022-12-04T18:46:33.453Z,37.78
2022-12-04T18:49:04.466Z,35.30
2022-12-04T18:51:32.895Z,58.03
2022-12-04T18:54:04.552Z,209.27
2022-12-04T18:56:34.861Z,60.53
2022-12-04T18:59:08.691Z,63.05
2022-12-04T19:01:36.460Z,29.55
2022-12-04T19:04:06.482Z,38.80
2022-12-04T19:06:46.954Z,36.88
2022-12-04T19:09:17.151Z,43.55
2022-12-04T19:11:45.200Z,42.60
2022-12-04T19:14:22.432Z,44.10
2022-12-04T19:16:51.377Z,36.10
2022-12-04T19:19:18.776Z,39.97
2022-12-04T19:21:46.143Z,41.55
2022-12-04T19:24:13.738Z,38.50
2022-12-04T19:26:42.668Z,51.47
2022-12-04T19:29:13.785Z,36.08
2022-12-04T19:31:41.420Z,53.55
2022-12-04T19:34:08.499Z,42.42
2022-12-04T19:36:37.320Z,33.55
2022-12-04T19:39:07.033Z,44.75
2022-12-04T19:41:35.294Z,44.42
2022-12-04T19:44:14.639Z,31.52
2022-12-04T19:46:50.888Z,45.05
2022-12-04T19:49:18.239Z,65.57
2022-12-04T19:51:46.703Z,78.65
2022-12-04T19:54:14.181Z,38.17
2022-12-04T19:56:42.785Z,43.53
2022-12-04T19:59:11.677Z,37.92
2022-12-04T20:01:39.485Z,42.58
2022-12-04T20:04:08.245Z,30.23
2022-12-04T20:06:38.679Z,39.38
2022-12-04T20:09:11.805Z,36.05
2022-12-04T20:11:39.816Z,33.45
2022-12-04T20:14:07.776Z,38.90
2022-12-04T20:16:36.599Z,46.80
2022-12-04T20:19:06.217Z,31.67
2022-12-04T20:21:33.783Z,56.92
2022-12-04T20:24:04.079Z,34.30
2022-12-04T20:26:35.440Z,31.55
2022-12-04T20:29:03.069Z,26.13
2022-12-04T20:31:38.952Z,36.35
2022-12-04T20:34:08.828Z,40.25
2022-12-04T20:36:39.474Z,49.13
2022-12-04T20:39:07.999Z,37.65
2022-12-04T20:41:36.697Z,26.60
2022-12-04T20:44:06.262Z,35.70
2022-12-04T20:46:36.709Z,29.45
2022-12-04T20:49:06.601Z,30.52
2022-12-04T20:51:37.157Z,42.53
2022-12-04T20:54:07.947Z,42.05
2022-12-04T20:56:37.230Z,43.78
2022-12-04T20:59:07.775Z,36.70
2022-12-04T21:01:36.590Z,25.35
2022-12-04T21:04:06.793Z,27.20
2022-12-04T21:06:39.874Z,39.70
2022-12-04T21:09:16.591Z,36.60
2022-12-04T21:11:53.058Z,25.65
2022-12-04T21:14:41.918Z,30.23
2022-12-04T21:17:13.057Z,35.20
2022-12-04T21:19:40.164Z,46.88
2022-12-04T21:22:07.936Z,42.47
2022-12-04T21:24:39.174Z,33.40
2022-12-04T21:27:09.205Z,32.50
2022-12-04T21:29:39.301Z,41.13
2022-12-04T21:32:07.686Z,41.45
2022-12-04T21:34:35.361Z,26.75
2022-12-04T21:37:02.908Z,25.92
2022-12-04T21:39:30.416Z,31.88
2022-12-04T21:42:16.218Z,28.70
2022-12-04T21:44:44.536Z,34.25
2022-12-04T21:47:15.163Z,33.10
2022-12-04T21:49:42.271Z,40.33
2022-12-04T21:52:09.672Z,37.28
2022-12-04T21:54:36.953Z,25.95
2022-12-04T21:57:04.481Z,29.67
2022-12-04T21:59:31.794Z,34.50
2022-12-04T22:01:59.294Z,23.55
2022-12-04T22:04:28.410Z,31.70
2022-12-04T22:06:57.876Z,33.30
2022-12-04T22:09:26.150Z,35.58
2022-12-04T22:11:53.786Z,34.90
2022-12-04T22:14:20.857Z,70.43
2022-12-04T22:16:51.343Z,39.28
2022-12-04T22:19:18.771Z,38.95
2022-12-04T22:21:46.133Z,26.98
2022-12-04T22:24:13.166Z,25.70
2022-12-04T22:26:40.466Z,37.90
2022-12-04T22:29:41.472Z,26.40
2022-12-04T22:31:55.280Z,16.75
2022-12-04T22:34:25.077Z,30.80
2022-12-04T22:36:52.500Z,43.15
2022-12-04T22:39:19.613Z,42.63
2022-12-04T22:41:46.995Z,38.00
2022-12-04T22:44:14.071Z,24.10
2022-12-04T22:46:41.477Z,51.92
2022-12-04T22:49:08.477Z,36.08
2022-12-04T22:51:35.859Z,26.52
2022-12-04T22:54:02.934Z,32.10
2022-12-04T22:56:32.020Z,27.25
2022-12-04T22:59:00.009Z,33.00
2022-12-04T23:01:32.988Z,22.83
2022-12-04T23:04:01.292Z,22.60
2022-12-04T23:06:30.382Z,25.10
2022-12-04T23:09:03.982Z,29.08
2022-12-04T23:11:31.584Z,38.45
2022-12-04T23:14:01.325Z,30.63
2022-12-04T23:16:30.966Z,29.40
2022-12-04T23:18:58.617Z,22.45
2022-12-04T23:21:26.897Z,24.45
2022-12-04T23:23:55.457Z,37.75
2022-12-04T23:26:33.916Z,41.15
2022-12-04T23:29:01.734Z,28.83
2022-12-04T23:31:30.429Z,38.90
2022-12-04T23:33:58.005Z,28.70
2022-12-04T23:36:25.781Z,31.80
2022-12-04T23:38:53.248Z,30.17
2022-12-04T23:41:26.705Z,29.85
2022-12-04T23:43:54.606Z,47.45
2022-12-04T23:46:29.021Z,39.03
2022-12-04T23:48:56.192Z,33.80
2022-12-04T23:51:23.952Z,53.78
2022-12-04T23:53:51.798Z,31.40
2022-12-04T23:56:24.412Z,33.30
2022-12-04T23:58:53.534Z,36.70
